• Join FlightAware (Why Join?)
  • Login
  • US Flag 
05:02PM EDT


 

Airport Tracker/Info


-or-


 

Live Flight TrackerFlight Track Log ✈ JBU917 ✈ 18-Apr-2013 ✈ KJFK - KORD

Flight Track Log - Related Links

Times and Time Zones

All times are in EDT time to prevent confusion due to time zone crossing. See the JBU917 flight status page for this flight to view local times or setup timezone preferences in your user account.

Time Position Orientation Groundspeed Altitude Reporting Facility
EDT Latitude Longitude Course Direction KTS MPH feet Rate Location/Type
06:13PM 40.6333 -73.7333 37° Northeast 186 214 2,000  Level New York TRACON
06:14PM 40.6333 -73.6333 90° East 233 268 3,900 2,160 Climbing New York TRACON
06:15PM 40.9861 -73.5820 21° North  Level FlightAware Approximate
06:16PM 41.0761 -73.5271 27° Northeast  Level FlightAware Approximate
06:16PM 40.7597 -73.4842 42° Northeast 272 313 9,800  Level Boston Center
06:17PM 41.1646 -73.4680 27° Northeast  Level FlightAware Approximate
06:17PM 40.8550 -73.5322 339° North 243 280 12,900  Level Boston Center
06:18PM 41.2578 -73.4256 37° Northeast  Level FlightAware Approximate
06:18PM 40.9250 -73.6047 322° Northwest 263 303 15,100  Level Boston Center
06:19PM 41.0131 -73.5761 14° North 321 369 17,000 960 Climbing Boston Center
06:20PM 41.1094 -73.5228 23° Northeast 327 376 17,000  Level Boston Center
06:21PM 41.1953 -73.4772 22° Northeast 346 398 17,000  Level Boston Center
06:22PM 41.3019 -73.4183 23° Northeast 366 421 17,000 480 Level Boston Center
06:23PM 41.3942 -73.3642 24° Northeast 389 448 18,000 1,140 Climbing Boston Center
06:24PM 41.5117 -73.2800 28° Northeast 409 471 19,300 1,500 Climbing Boston Center
06:25PM 41.5853 -73.1756 47° Northeast 419 482 21,100 1,380 Climbing Boston Center
06:27PM 41.6961 -73.1158 22° Northeast 419 482 22,500 1,500 Climbing Boston Center
06:28PM 41.8417 -73.1422 352° North 417 480 24,500 1,560 Climbing Boston Center
06:29PM 41.9625 -73.1658 352° North 423 487 25,600 960 Climbing Boston Center
06:30PM 42.0917 -73.1869 353° North 441 507 26,500 840 Climbing Boston Center
06:31PM 42.2186 -73.2111 352° North 455 524 27,400 1,320 Climbing Boston Center
06:32PM 42.3644 -73.2269 355° North 468 539 29,100 1,380 Climbing Boston Center
06:33PM 42.4892 -73.2622 348° North 468 539 30,200 1,080 Climbing Boston Center
06:34PM 42.5653 -73.3703 314° West 423 487 31,400 1,080 Climbing Boston Center
06:35PM 42.6036 -73.5175 290° West 403 464 32,400 900 Climbing Boston Center
06:36PM 42.6436 -73.6989 287° West 403 464 33,400 660 Climbing Boston Center
06:37PM 42.6750 -73.8606 285° West 403 464 34,000 780 Climbing Boston Center
06:38PM 42.7106 -74.0139 288° West 415 478 35,000 780 Climbing Boston Center
06:39PM 42.7417 -74.1675 285° West 421 484 35,600 480 Climbing Boston Center
06:40PM 42.7747 -74.3183 287° West 421 484 36,000 180 Climbing Boston Center
06:41PM 42.8075 -74.4722 286° West 421 484 36,000  Level Boston Center
06:42PM 42.8422 -74.6261 287° West 421 484 36,000  Level Boston Center
06:43PM 42.8744 -74.7803 286° West 421 484 36,000  Level Boston Center
06:44PM 42.9067 -74.9375 286° West 421 484 36,000  Level Boston Center
06:45PM 42.9403 -75.1006 286° West 427 491 36,000  Level Boston Center
06:46PM 42.9700 -75.2550 285° West 427 491 36,000  Level Boston Center
06:47PM 43.0033 -75.4183 286° West 437 503 36,000  Level Boston Center
06:48PM 43.0347 -75.5764 285° West 437 503 36,000  Level Boston Center
06:49PM 43.0678 -75.7314 286° West 437 503 36,000  Level Boston Center
06:50PM 43.0983 -75.8925 285° West 437 503 36,000  Level Boston Center
06:51PM 43.1289 -76.0506 285° West 437 503 36,000  Level Boston Center
06:52PM 43.1500 -76.2667 278° West 430 495 36,000  Level Toronto Center
06:53PM 43.1500 -76.4333 270° West 430 495 36,000  Level Toronto Center
06:54PM 43.1333 -76.6000 262° West 420 483 36,000  Level Toronto Center
06:55PM 43.1611 -76.7975 281° West 433 498 36,000  Level Cleveland Center
06:56PM 43.1578 -76.9572 268° West 433 498 36,000  Level Cleveland Center
06:57PM 43.1564 -77.1167 269° West 433 498 36,000  Level Cleveland Center
06:58PM 43.1569 -77.2761 270° West 423 487 36,000  Level Cleveland Center
06:59PM 43.1547 -77.4186 269° West 423 487 36,000  Level Cleveland Center
07:00PM 43.1528 -77.5781 269° West 423 487 36,000  Level Cleveland Center
07:01PM 43.1525 -77.7375 270° West 423 487 36,000  Level Cleveland Center
07:02PM 43.1503 -77.8969 269° West 423 487 36,000  Level Cleveland Center
07:03PM 43.1475 -78.0536 269° West 423 487 36,000  Level Cleveland Center
07:04PM 43.1447 -78.2158 269° West 423 487 36,000  Level Cleveland Center
07:05PM 43.1414 -78.3753 268° West 423 487 36,000  Level Cleveland Center
07:06PM 43.1381 -78.5347 268° West 423 487 36,000  Level Cleveland Center
07:07PM 43.1308 -78.7086 267° West 423 487 36,000  Level Cleveland Center
07:08PM 43.1247 -78.8681 267° West 423 487 36,000  Level Cleveland Center
07:09PM 43.1167 -79.0000 265° West 410 472 36,000  Level Toronto Center
07:10PM 43.1167 -79.1500 270° West 410 472 36,000  Level Toronto Center
07:11PM 43.1000 -79.3167 262° West 410 472 36,000  Level Toronto Center
07:12PM 43.1000 -79.4667 270° West 420 483 36,000  Level Toronto Center
07:13PM 43.1000 -79.6167 270° West 420 483 36,000  Level Toronto Center
07:14PM 43.0833 -79.8000 263° West 420 483 36,000  Level Toronto Center
07:15PM 43.0833 -79.9333 270° West 420 483 36,000  Level Toronto Center
07:16PM 43.0833 -80.0833 270° West 410 472 36,000  Level Toronto Center
07:17PM 43.0667 -80.2500 262° West 410 472 36,000  Level Toronto Center
07:18PM 43.0667 -80.4167 270° West 410 472 36,000  Level Toronto Center
07:19PM 43.0667 -80.5667 270° West 410 472 36,000  Level Toronto Center
07:20PM 43.0500 -80.7333 262° West 410 472 36,000  Level Toronto Center
07:21PM 43.0333 -80.8667 260° West 400 460 36,000  Level Toronto Center
07:22PM 43.0333 -81.0167 270° West 400 460 36,000  Level Toronto Center
07:23PM 43.0167 -81.1833 262° West 400 460 36,000  Level Toronto Center
07:24PM 43.0167 -81.3167 270° West 400 460 36,000  Level Toronto Center
07:25PM 43.0167 -81.4833 270° West 400 460 36,000  Level Toronto Center
07:26PM 43.0167 -81.6333 270° West 400 460 36,000  Level Toronto Center
07:27PM 43.0167 -81.7833 270° West 400 460 36,000  Level Toronto Center
07:28PM 43.0000 -81.9333 261° West 400 460 36,000  Level Toronto Center
07:29PM 43.0000 -82.1000 270° West 400 460 36,000  Level Toronto Center
07:30PM 43.0000 -82.2333 270° West 400 460 36,000  Level Toronto Center
07:31PM 43.0000 -82.3833 270° West 400 460 36,000  Level Toronto Center
07:32PM 43.0000 -82.5333 270° West 400 460 36,000  Level Toronto Center
07:33PM 42.9833 -82.6833 261° West 400 460 36,000  Level Toronto Center
07:34PM 42.9833 -82.8500 270° West 390 449 36,000  Level Toronto Center
07:35PM 42.9833 -82.9833 270° West 390 449 36,000  Level Toronto Center
07:36PM 42.9883 -83.1406 273° West 404 465 36,000  Level Cleveland Center
07:37PM 42.9831 -83.2850 267° West 399 459 36,000  Level Cleveland Center
07:38PM 42.9772 -83.4322 267° West 394 453 36,000  Level Cleveland Center
07:39PM 42.9736 -83.5797 268° West 394 453 36,000  Level Cleveland Center
07:40PM 42.9656 -83.7269 266° West 394 453 36,000 -300 Level Cleveland Center
07:41PM 42.9531 -83.8739 263° West 394 453 35,500 -660 Descending Cleveland Center
07:43PM 42.9000 -84.1667 256° West 400 460 34,200 -720 Descending Toronto Center
07:44PM 42.9000 -84.3167 270° West 400 460 33,500 -720 Descending Toronto Center
07:45PM 42.8833 -84.4833 262° West 400 460 32,800 -720 Descending Toronto Center
07:46PM 42.8667 -84.6167 260° West 400 460 32,100 -960 Descending Toronto Center
07:47PM 42.8500 -84.7500 260° West 370 426 30,900 -1,200 Descending Toronto Center
07:48PM 42.8633 -84.7892 295° West 364 419 30,600 -1,440 Descending Chicago Center
07:49PM 42.8497 -84.9125 261° West 338 389 29,100 -1,440 Descending Chicago Center
07:50PM 42.8378 -85.0372 263° West 332 382 27,700 -1,380 Descending Chicago Center
07:51PM 42.8239 -85.1572 261° West 325 374 26,300 -1,380 Descending Chicago Center
07:52PM 42.8181 -85.2786 266° West 327 376 24,900 -1,380 Descending Chicago Center
07:53PM 42.8717 -85.3900 303° West 354 407 23,500 -1,380 Descending Chicago Center
07:54PM 42.8678 -85.4947 267° West 316 364 22,100 -1,560 Descending Chicago Center
07:55PM 42.8133 -85.5947 233° Southwest 277 319 20,400 -1,080 Descending Chicago Center
07:56PM 42.7686 -85.6783 234° Southwest 272 313 20,000 -240 Descending Chicago Center
07:57PM 42.7375 -85.7711 245° Southwest 276 318 20,000  Level Chicago Center
07:58PM 42.7189 -85.8744 256° West 280 322 20,000  Level Chicago Center
07:59PM 42.6994 -85.9778 256° West 281 323 20,000  Level Chicago Center
08:00PM 42.6811 -86.0822 257° West 283 326 20,000  Level Chicago Center
08:01PM 42.6619 -86.1869 256° West 283 326 20,000 -60 Level Chicago Center
08:02PM 42.6422 -86.2897 255° West 281 323 19,900 -780 Descending Chicago Center
08:03PM 42.6233 -86.3889 256° West 274 315 18,500 -1,500 Descending Chicago Center
08:04PM 42.6019 -86.5006 255° West 255 293 16,900 -1,320 Descending Chicago Center
08:05PM 42.5864 -86.5889 257° West 242 278 15,900 -1,020 Descending Chicago Center
08:06PM 42.5692 -86.6783 255° West 244 281 14,900 -1,200 Descending Chicago Center
08:07PM 42.5497 -86.7683 254° West 248 285 13,500 -1,320 Descending Chicago Center
08:08PM 42.5256 -86.8553 249° West 247 284 12,300 -1,260 Descending Chicago Center
08:09PM 42.5025 -86.9408 250° West 243 280 11,000 -1,320 Descending Chicago Center
08:10PM 42.4786 -87.0281 250° West 247 284 9,700 -1,020 Descending Chicago Center
08:11PM 42.4472 -87.1392 249° West 262 302 9,000 -360 Descending Chicago Center
08:12PM 42.4228 -87.2308 250° West 259 298 9,000 -60 Level Chicago Center
08:13PM 42.3972 -87.3228 249° West 261 300 8,900 -420 Descending Chicago Center
08:14PM 42.3722 -87.4181 250° West 251 289 8,200 -660 Descending Chicago Center
08:15PM 42.3581 -87.4931 256° West 213 245 7,600 -600 Descending Chicago Center
08:16PM 42.3233 -87.5353 222° Southwest 158 182 7,000 -300 Descending Chicago Center
08:17PM 42.2950 -87.5647 218° Southwest 144 166 7,000  Level Chicago Center
08:18PM 42.2647 -87.6011 222° Southwest 144 166 7,000 -180 Level Chicago Center
08:19PM 42.2328 -87.6342 217° Southwest 146 168 6,700 -600 Descending Chicago Center
08:20PM 42.1953 -87.6769 220° Southwest 147 169 5,800 -840 Descending Chicago Center
08:21PM 42.1656 -87.7117 221° Southwest 143 165 5,000 -840 Descending Chicago Center
08:22PM 42.1344 -87.7447 218° Southwest 144 166 4,200 -780 Descending Chicago Center
08:24PM 42.1000 -87.7833 220° Southwest 148 170 3,300 -840 Descending Chicago TRACON
08:25PM 42.0667 -87.8167 217° Southwest 147 169 2,400 -780 Descending Chicago TRACON
08:26PM 42.0333 -87.8500 217° Southwest 114 131 1,800 -660 Descending Chicago TRACON
08:27PM 42.0167 -87.8833 236° Southwest 116 133 1,200 -720 Descending Chicago TRACON